Accueil
METAR-TAF:

METAR-TAF

Aéroports :

Lifou, Nouvelle-Calédonie

Wanaham

latitude: 20-46S, longitude: 167-14E, altitude: 28 m

METAR: absent

Heure: 08:45 (21:45 UTC)

Prévision

Le bulletin a été fait il y a 4 heures et 45 minutes, à 17:00 UTC
Prévision valable du 22 à 18 UTC au 23 à 18 UTC
Vent 8 kt de est
Visibilité 10 km ou plus
Quelques nuages à une hauteur de 2000 ft
Temporairement
du 23 à 00 UTC au 23 à 06 UTC
Vent 10 kt de est avec des rafales jusqu'à 22 kt

TAF: NWWL 221700Z 2218/2318 10008KT 9999 FEW020 TEMPO 2300/2306 10010G22KT

Observations et prévisions météorologiques de plus de 4000 aéroports (messages METAR et TAF).

Les stations disponibles sont représentées par des disques jaunes et rouges sur la carte.

Passer la souris dessus pour voir le nom de la station.

Cliquer dessus pour voir les observations et prévisions météorologiques.

Pour changer de carte: cliquez sur les boutons verts avec une croix noire pour zoomer, sur le bouton vert avec un tiret pour effectuer un zoom arrière, ou sur les flèches vertes pour les cartes adjacentes.


METAR-TAF: